createdAt,value
2022-07-26T00:01:17.103Z,56.67
2022-07-26T00:03:45.197Z,56.86
2022-07-26T00:06:13.349Z,57.25
2022-07-26T00:08:41.297Z,57.13
2022-07-26T00:11:09.278Z,57.03
2022-07-26T00:13:38.621Z,57.39
2022-07-26T00:16:07.747Z,57.36
2022-07-26T00:18:35.759Z,57.35
2022-07-26T00:21:03.881Z,57.22
2022-07-26T00:23:35.060Z,57.44
2022-07-26T00:26:02.955Z,57.70
2022-07-26T00:28:31.185Z,57.56
2022-07-26T00:31:01.033Z,57.74
2022-07-26T00:33:29.264Z,57.39
2022-07-26T00:35:57.451Z,57.61
2022-07-26T00:38:25.485Z,57.34
2022-07-26T00:40:54.549Z,57.86
2022-07-26T00:43:22.514Z,57.73
2022-07-26T00:45:50.897Z,58.42
2022-07-26T00:48:20.282Z,59.06
2022-07-26T00:50:48.388Z,59.39
2022-07-26T00:53:16.682Z,59.83
2022-07-26T00:55:44.693Z,60.25
2022-07-26T00:58:13.499Z,60.13
2022-07-26T01:00:41.666Z,60.79
2022-07-26T01:03:10.225Z,60.99
2022-07-26T01:05:39.567Z,60.99
2022-07-26T01:08:07.749Z,60.77
2022-07-26T01:10:35.735Z,61.15
2022-07-26T01:13:03.593Z,61.41
2022-07-26T01:15:31.560Z,61.18
2022-07-26T01:17:59.520Z,61.34
2022-07-26T01:20:27.571Z,60.87
2022-07-26T01:22:56.915Z,60.87
2022-07-26T01:25:31.942Z,61.04
2022-07-26T01:28:00.034Z,60.93
2022-07-26T01:30:28.482Z,61.65
2022-07-26T01:32:56.727Z,61.46
2022-07-26T01:35:24.653Z,61.61
2022-07-26T01:37:58.468Z,61.73
2022-07-26T01:40:26.570Z,62.49
2022-07-26T01:42:54.585Z,62.58
2022-07-26T01:45:22.686Z,62.34
2022-07-26T01:47:51.088Z,62.58
2022-07-26T01:50:19.569Z,62.27
2022-07-26T01:52:47.705Z,62.37
2022-07-26T01:55:17.093Z,63.05
2022-07-26T01:57:46.184Z,63.52
2022-07-26T02:00:15.226Z,63.43
2022-07-26T02:02:43.499Z,63.53
2022-07-26T02:05:12.539Z,64.24
2022-07-26T02:07:44.710Z,64.05
2022-07-26T02:10:14.637Z,63.93
2022-07-26T02:12:44.410Z,63.66
2022-07-26T02:15:14.241Z,64.18
2022-07-26T02:17:42.917Z,63.25
2022-07-26T02:20:11.922Z,63.71
2022-07-26T02:22:39.893Z,63.30
2022-07-26T02:25:08.285Z,62.69
2022-07-26T02:27:36.379Z,62.83
2022-07-26T02:30:06.352Z,62.71
2022-07-26T02:32:34.521Z,62.95
2022-07-26T02:35:02.408Z,62.99
2022-07-26T02:37:30.488Z,63.00
2022-07-26T02:40:05.893Z,62.83
2022-07-26T02:42:33.793Z,62.79
2022-07-26T02:45:01.888Z,62.66
2022-07-26T02:47:32.915Z,62.23
2022-07-26T02:50:01.077Z,62.48
2022-07-26T02:52:29.031Z,62.88
2022-07-26T02:54:58.062Z,62.92
2022-07-26T02:57:26.021Z,63.48
2022-07-26T02:59:53.897Z,63.65
2022-07-26T03:02:21.909Z,63.69
2022-07-26T03:04:52.151Z,63.37
2022-07-26T03:07:20.013Z,63.52
2022-07-26T03:09:47.941Z,63.76
2022-07-26T03:12:17.180Z,63.75
2022-07-26T03:14:45.422Z,63.85
2022-07-26T03:17:13.551Z,64.61
2022-07-26T03:19:41.580Z,64.85
2022-07-26T03:22:11.727Z,65.14
2022-07-26T03:24:39.666Z,65.21
2022-07-26T03:27:07.568Z,66.08
2022-07-26T03:29:35.525Z,66.22
2022-07-26T03:32:04.459Z,66.33
2022-07-26T03:34:32.479Z,66.14
2022-07-26T03:37:00.423Z,66.46
2022-07-26T03:39:29.974Z,67.03
2022-07-26T03:41:57.820Z,66.82
2022-07-26T03:44:25.793Z,67.43
2022-07-26T03:46:53.788Z,66.97
2022-07-26T03:49:21.738Z,67.27
2022-07-26T03:51:49.963Z,66.91
2022-07-26T03:54:17.883Z,66.98
2022-07-26T03:56:46.310Z,67.10
2022-07-26T03:59:14.301Z,66.35
2022-07-26T04:01:43.481Z,67.20
2022-07-26T04:04:12.611Z,67.26
2022-07-26T04:06:41.981Z,67.62
2022-07-26T04:09:11.320Z,67.91
2022-07-26T04:11:40.063Z,68.37
2022-07-26T04:14:10.353Z,68.20
2022-07-26T04:16:43.155Z,68.39
2022-07-26T04:19:11.619Z,68.19
2022-07-26T04:21:39.747Z,67.54
2022-07-26T04:24:08.622Z,67.11
2022-07-26T04:26:36.682Z,66.73
2022-07-26T04:29:04.701Z,66.74
2022-07-26T04:31:36.643Z,67.02
2022-07-26T04:34:04.958Z,67.21
2022-07-26T04:36:33.389Z,67.01
2022-07-26T04:39:01.534Z,67.31
2022-07-26T04:41:29.414Z,66.85
2022-07-26T04:43:58.059Z,66.91
2022-07-26T04:46:26.143Z,66.79
2022-07-26T04:48:55.557Z,67.07
2022-07-26T04:51:23.637Z,67.86
2022-07-26T04:53:51.883Z,67.38
2022-07-26T04:56:19.702Z,67.57
2022-07-26T04:58:47.941Z,67.82
2022-07-26T05:01:15.884Z,67.95
2022-07-26T05:03:43.937Z,68.35
2022-07-26T05:06:13.552Z,68.43
2022-07-26T05:08:43.491Z,68.61
2022-07-26T05:11:11.391Z,68.38
2022-07-26T05:13:39.317Z,68.23
2022-07-26T05:16:11.662Z,68.10
2022-07-26T05:18:45.938Z,67.88
2022-07-26T05:21:19.509Z,67.90
2022-07-26T05:23:47.521Z,68.22
2022-07-26T05:26:15.857Z,67.43
2022-07-26T05:28:43.926Z,67.15
2022-07-26T05:31:12.022Z,66.96
2022-07-26T05:33:40.034Z,67.01
2022-07-26T05:36:08.317Z,66.75
2022-07-26T05:38:37.698Z,66.12
2022-07-26T05:41:06.092Z,66.35
2022-07-26T05:43:41.565Z,66.11
2022-07-26T05:46:11.441Z,66.06
2022-07-26T05:48:39.988Z,66.16
2022-07-26T05:51:08.139Z,66.04
2022-07-26T05:53:38.469Z,64.60
2022-07-26T05:56:07.563Z,63.72
2022-07-26T05:58:35.647Z,62.90
2022-07-26T06:01:03.488Z,62.72
2022-07-26T06:03:32.355Z,62.85
2022-07-26T06:06:00.611Z,62.56
2022-07-26T06:08:28.924Z,62.17
2022-07-26T06:10:59.102Z,61.70
2022-07-26T06:13:27.184Z,61.90
2022-07-26T06:15:57.460Z,61.90
2022-07-26T06:18:25.860Z,60.61
2022-07-26T06:20:54.183Z,60.91
2022-07-26T06:23:30.989Z,61.39
2022-07-26T06:26:05.303Z,61.61
2022-07-26T06:28:33.827Z,61.59
2022-07-26T06:31:02.091Z,60.84
2022-07-26T06:33:30.414Z,61.32
2022-07-26T06:35:58.431Z,60.15
2022-07-26T06:38:26.468Z,60.70
2022-07-26T06:40:54.451Z,60.72
2022-07-26T06:43:23.888Z,60.85
2022-07-26T06:45:52.125Z,60.96
2022-07-26T06:48:21.004Z,60.74
2022-07-26T06:50:50.166Z,59.80
2022-07-26T06:53:18.043Z,59.97
2022-07-26T06:55:46.034Z,59.70
2022-07-26T06:58:14.472Z,60.39
2022-07-26T07:00:51.053Z,59.26
2022-07-26T07:03:19.624Z,58.63
2022-07-26T07:05:50.678Z,59.19
2022-07-26T07:08:18.774Z,59.09
2022-07-26T07:10:48.217Z,59.63
2022-07-26T07:13:21.076Z,59.51
2022-07-26T07:15:50.527Z,59.22
2022-07-26T07:18:19.336Z,58.77
2022-07-26T07:20:48.270Z,58.86
2022-07-26T07:23:17.295Z,59.07
2022-07-26T07:25:45.158Z,58.71
2022-07-26T07:28:13.426Z,58.79
2022-07-26T07:30:41.404Z,58.29
2022-07-26T07:33:22.707Z,59.10
2022-07-26T07:35:52.277Z,58.62
2022-07-26T07:38:20.768Z,58.56
2022-07-26T07:40:50.791Z,58.37
2022-07-26T07:43:18.750Z,58.25
2022-07-26T07:45:48.496Z,58.44
2022-07-26T07:48:18.700Z,57.87
2022-07-26T07:50:47.280Z,56.67
2022-07-26T07:53:15.873Z,56.35
2022-07-26T07:55:46.218Z,56.76
2022-07-26T07:58:17.296Z,56.64
2022-07-26T08:00:45.666Z,56.33
2022-07-26T08:03:18.402Z,56.98
2022-07-26T08:05:50.935Z,56.02
2022-07-26T08:08:22.091Z,55.38
2022-07-26T08:10:52.986Z,54.57
2022-07-26T08:13:22.846Z,54.92
2022-07-26T08:15:51.614Z,55.29
2022-07-26T08:18:22.553Z,55.38
2022-07-26T08:20:53.362Z,55.39
2022-07-26T08:23:22.912Z,55.03
2022-07-26T08:26:01.885Z,54.98
2022-07-26T08:28:51.163Z,55.11
2022-07-26T08:31:21.658Z,55.47
2022-07-26T08:33:50.061Z,55.33
2022-07-26T08:36:20.821Z,54.19
2022-07-26T08:38:49.483Z,53.64
2022-07-26T08:41:20.313Z,53.58
2022-07-26T08:43:52.623Z,53.49
2022-07-26T08:46:28.374Z,52.17
2022-07-26T08:48:58.145Z,51.79
2022-07-26T08:51:32.949Z,50.84
2022-07-26T08:54:05.817Z,49.82
2022-07-26T08:56:36.520Z,48.94
2022-07-26T08:59:07.442Z,50.53
2022-07-26T09:01:38.630Z,49.39
2022-07-26T09:04:30.994Z,50.34
2022-07-26T09:07:07.674Z,50.09
2022-07-26T09:09:37.488Z,51.26
2022-07-26T09:12:21.285Z,50.79
2022-07-26T09:14:57.244Z,51.36
2022-07-26T09:17:43.306Z,51.46
2022-07-26T09:20:14.383Z,51.07
2022-07-26T09:23:04.866Z,48.27
2022-07-26T09:25:36.632Z,47.73
2022-07-26T09:28:23.267Z,47.97
2022-07-26T09:30:54.301Z,47.82
2022-07-26T09:33:24.763Z,48.54
2022-07-26T09:36:06.729Z,48.87
2022-07-26T09:38:43.767Z,49.57
2022-07-26T09:41:20.568Z,49.64
2022-07-26T09:43:53.762Z,47.33
2022-07-26T09:46:26.134Z,48.22
2022-07-26T09:49:12.327Z,49.45
2022-07-26T09:51:46.087Z,49.11
2022-07-26T09:54:19.917Z,46.54
2022-07-26T09:56:54.179Z,44.87
2022-07-26T09:59:24.622Z,45.65
2022-07-26T10:01:54.175Z,47.85
2022-07-26T10:04:26.998Z,46.55
2022-07-26T10:06:57.826Z,39.09
2022-07-26T10:09:35.523Z,35.18
2022-07-26T10:12:09.699Z,38.32
2022-07-26T10:14:46.813Z,42.19
2022-07-26T10:17:43.211Z,43.78
2022-07-26T10:20:32.592Z,41.29
2022-07-26T10:23:03.394Z,33.00
2022-07-26T10:25:49.509Z,39.54
2022-07-26T10:28:28.679Z,41.26
2022-07-26T10:31:37.992Z,44.47
2022-07-26T10:34:06.630Z,45.10
2022-07-26T10:36:37.014Z,45.77
2022-07-26T10:39:10.031Z,44.91
2022-07-26T10:41:47.020Z,40.68
2022-07-26T10:44:22.154Z,34.04
2022-07-26T10:47:12.065Z,30.87
2022-07-26T10:49:42.288Z,29.93
2022-07-26T10:52:16.028Z,33.89
2022-07-26T10:55:20.435Z,37.65
2022-07-26T10:57:50.310Z,40.24
2022-07-26T11:00:28.080Z,42.15
2022-07-26T11:02:59.089Z,43.64
2022-07-26T11:05:32.453Z,39.64
2022-07-26T11:08:08.079Z,40.21
2022-07-26T11:10:38.350Z,41.92
2022-07-26T11:13:16.877Z,42.45
2022-07-26T11:15:47.892Z,42.82
2022-07-26T11:18:28.093Z,42.46
2022-07-26T11:20:59.005Z,43.08
2022-07-26T11:23:33.684Z,43.63
2022-07-26T11:26:13.796Z,44.17
2022-07-26T11:29:04.026Z,44.55
2022-07-26T11:31:50.924Z,43.90
2022-07-26T11:34:29.526Z,42.04
2022-07-26T11:37:00.780Z,42.78
2022-07-26T11:39:31.464Z,42.39
2022-07-26T11:42:02.126Z,42.93
2022-07-26T11:44:32.684Z,43.70
2022-07-26T11:47:11.161Z,44.10
2022-07-26T11:52:31.056Z,33.92
2022-07-26T11:54:59.170Z,34.60
2022-07-26T11:57:30.339Z,37.91
2022-07-26T12:00:02.049Z,39.71
2022-07-26T12:02:39.981Z,41.81
2022-07-26T12:05:20.389Z,40.55
2022-07-26T12:07:59.822Z,40.77
2022-07-26T12:10:28.941Z,41.06
2022-07-26T12:13:16.812Z,41.29
2022-07-26T12:15:48.754Z,35.54
2022-07-26T12:18:24.708Z,31.66
2022-07-26T12:21:05.001Z,29.18
2022-07-26T12:23:44.629Z,33.74
2022-07-26T12:26:24.588Z,37.45
2022-07-26T12:28:53.770Z,39.14
2022-07-26T12:31:27.946Z,37.89
2022-07-26T12:33:59.416Z,39.07
2022-07-26T12:36:38.783Z,37.71
2022-07-26T12:39:12.649Z,38.85
2022-07-26T12:41:41.574Z,38.26
2022-07-26T12:44:12.612Z,36.67
2022-07-26T12:46:44.847Z,36.97
2022-07-26T12:49:13.732Z,37.86
2022-07-26T12:51:41.893Z,37.08
2022-07-26T12:54:10.311Z,36.47
2022-07-26T12:56:38.383Z,39.20
2022-07-26T12:59:08.618Z,40.43
2022-07-26T13:01:36.909Z,40.69
2022-07-26T13:04:08.898Z,41.07
2022-07-26T13:06:40.832Z,42.53
2022-07-26T13:09:09.532Z,37.38
2022-07-26T13:11:37.632Z,38.82
2022-07-26T13:14:05.654Z,39.15
2022-07-26T13:16:33.689Z,39.75
2022-07-26T13:19:01.709Z,37.25
2022-07-26T13:21:33.615Z,34.18
2022-07-26T13:24:02.799Z,33.45
2022-07-26T13:26:30.779Z,32.09
2022-07-26T13:28:59.442Z,32.21
2022-07-26T13:31:28.017Z,31.56
2022-07-26T13:33:57.297Z,30.23
2022-07-26T13:36:25.390Z,30.80
2022-07-26T13:38:54.926Z,31.19
2022-07-26T13:41:22.905Z,32.26
2022-07-26T13:43:51.249Z,30.08
2022-07-26T13:46:19.373Z,30.28
2022-07-26T13:49:00.551Z,29.46
2022-07-26T13:51:50.223Z,29.03
2022-07-26T13:54:24.103Z,29.80
2022-07-26T13:56:53.774Z,29.45
2022-07-26T13:59:21.877Z,29.65
2022-07-26T14:01:50.010Z,31.28
2022-07-26T14:04:20.157Z,30.37
2022-07-26T14:06:48.423Z,29.76
2022-07-26T14:09:17.855Z,30.86
2022-07-26T14:11:48.278Z,32.77
2022-07-26T14:14:16.573Z,34.89
2022-07-26T14:16:48.030Z,32.39
2022-07-26T14:19:17.531Z,32.14
2022-07-26T14:21:58.788Z,33.53
2022-07-26T14:24:33.725Z,34.08
2022-07-26T14:27:03.480Z,33.89
2022-07-26T14:29:33.560Z,33.19
2022-07-26T14:32:01.713Z,33.94
2022-07-26T14:34:33.902Z,34.59
2022-07-26T14:37:02.260Z,33.98
2022-07-26T14:39:43.643Z,34.66
2022-07-26T14:42:13.255Z,35.10
2022-07-26T14:44:44.607Z,36.18
2022-07-26T14:47:13.114Z,36.67
2022-07-26T14:49:41.174Z,37.53
2022-07-26T14:52:10.702Z,37.92
2022-07-26T14:54:38.614Z,37.75
2022-07-26T14:57:06.578Z,36.12
2022-07-26T14:59:35.981Z,35.47
2022-07-26T15:02:06.037Z,34.92
2022-07-26T15:04:34.550Z,36.07
2022-07-26T15:07:02.952Z,35.63
2022-07-26T15:09:30.936Z,36.26
2022-07-26T15:11:59.662Z,36.97
2022-07-26T15:14:28.179Z,37.17
2022-07-26T15:16:57.575Z,38.26
2022-07-26T15:19:26.072Z,38.64
2022-07-26T15:21:55.161Z,37.41
2022-07-26T15:24:23.658Z,36.97
2022-07-26T15:26:52.661Z,36.87
2022-07-26T15:29:20.711Z,36.62
2022-07-26T15:31:49.649Z,36.57
2022-07-26T15:34:19.843Z,36.86
2022-07-26T15:36:48.326Z,36.24
2022-07-26T15:39:17.813Z,36.81
2022-07-26T15:41:47.322Z,36.39
2022-07-26T15:44:17.294Z,35.96
2022-07-26T15:46:47.968Z,35.62
2022-07-26T15:49:17.812Z,35.59
2022-07-26T15:51:47.547Z,35.38
2022-07-26T15:54:16.106Z,34.50
2022-07-26T15:56:44.466Z,34.76
2022-07-26T15:59:12.389Z,34.74
2022-07-26T16:01:40.315Z,34.40
2022-07-26T16:04:08.711Z,35.33
2022-07-26T16:06:37.920Z,35.63
2022-07-26T16:09:22.927Z,35.36
2022-07-26T16:11:51.884Z,35.83
2022-07-26T16:14:20.840Z,36.86
2022-07-26T16:16:49.535Z,36.65
2022-07-26T16:19:17.566Z,36.93
2022-07-26T16:21:45.614Z,37.70
2022-07-26T16:24:15.238Z,38.25
2022-07-26T16:26:43.691Z,37.49
2022-07-26T16:29:12.144Z,36.64
2022-07-26T16:31:41.619Z,36.44
2022-07-26T16:34:10.530Z,35.41
2022-07-26T16:36:39.007Z,35.41
2022-07-26T16:39:07.891Z,35.78
2022-07-26T16:41:38.083Z,34.98
2022-07-26T16:44:06.595Z,35.33
2022-07-26T16:46:34.604Z,35.77
2022-07-26T16:49:03.008Z,36.20
2022-07-26T16:51:33.023Z,36.22
2022-07-26T16:54:01.091Z,36.33
2022-07-26T16:56:29.715Z,37.84
2022-07-26T16:58:59.517Z,38.02
2022-07-26T17:01:27.560Z,39.27
2022-07-26T17:03:55.538Z,39.59
2022-07-26T17:06:24.894Z,40.25
2022-07-26T17:08:53.267Z,40.63
2022-07-26T17:11:21.455Z,41.39
2022-07-26T17:13:49.878Z,41.10
2022-07-26T17:16:21.389Z,42.13
2022-07-26T17:18:53.433Z,41.88
2022-07-26T17:21:21.849Z,42.15
2022-07-26T17:23:52.458Z,42.58
2022-07-26T17:26:21.126Z,43.36
2022-07-26T17:28:49.091Z,42.74
2022-07-26T17:31:17.497Z,43.41
2022-07-26T17:33:48.000Z,42.95
2022-07-26T17:36:24.632Z,43.09
2022-07-26T17:38:52.766Z,43.70
2022-07-26T17:41:24.227Z,42.76
2022-07-26T17:44:02.968Z,43.03
2022-07-26T17:46:33.400Z,43.64
2022-07-26T17:49:07.356Z,44.22
2022-07-26T17:51:35.892Z,43.73
2022-07-26T17:54:04.484Z,44.42
2022-07-26T17:56:33.358Z,44.56
2022-07-26T17:59:01.791Z,44.08
2022-07-26T18:01:30.236Z,43.20
2022-07-26T18:03:58.557Z,43.95
2022-07-26T18:06:29.342Z,44.06
2022-07-26T18:08:57.382Z,44.65
2022-07-26T18:11:25.639Z,44.57
2022-07-26T18:13:54.785Z,44.47
2022-07-26T18:16:23.234Z,44.78
2022-07-26T18:18:52.226Z,44.79
2022-07-26T18:21:20.257Z,44.39
2022-07-26T18:24:15.448Z,44.42
2022-07-26T18:26:38.214Z,44.25
2022-07-26T18:29:06.810Z,44.98
2022-07-26T18:31:35.670Z,45.47
2022-07-26T18:34:06.611Z,45.47
2022-07-26T18:36:35.468Z,45.63
2022-07-26T18:39:05.212Z,46.11
2022-07-26T18:41:34.403Z,46.07
2022-07-26T18:44:03.234Z,46.60
2022-07-26T18:46:31.451Z,47.00
2022-07-26T18:49:02.382Z,46.58
2022-07-26T18:51:31.861Z,47.00
2022-07-26T18:54:00.425Z,47.40
2022-07-26T18:56:30.668Z,48.22
2022-07-26T18:58:58.818Z,48.62
2022-07-26T19:01:26.891Z,48.04
2022-07-26T19:03:55.562Z,48.17
2022-07-26T19:06:24.690Z,48.11
2022-07-26T19:08:52.930Z,48.20
2022-07-26T19:11:21.194Z,48.88
2022-07-26T19:13:52.052Z,48.98
2022-07-26T19:16:20.885Z,49.47
2022-07-26T19:18:53.788Z,48.69
2022-07-26T19:21:25.413Z,49.03
2022-07-26T19:23:53.456Z,49.10
2022-07-26T19:26:23.758Z,49.08
2022-07-26T19:28:53.754Z,49.42
2022-07-26T19:31:24.593Z,50.11
2022-07-26T19:33:53.152Z,50.03
2022-07-26T19:36:26.081Z,50.17
2022-07-26T19:38:55.710Z,51.19
2022-07-26T19:41:24.984Z,50.69
2022-07-26T19:43:54.778Z,50.56
2022-07-26T19:46:23.292Z,50.53
2022-07-26T19:48:52.061Z,50.75
2022-07-26T19:51:20.429Z,51.09
2022-07-26T19:53:48.568Z,51.79
2022-07-26T19:56:17.120Z,51.88
2022-07-26T19:58:46.148Z,51.79
2022-07-26T20:01:16.595Z,52.18
2022-07-26T20:03:44.569Z,52.54
2022-07-26T20:06:14.260Z,52.38
2022-07-26T20:08:42.647Z,52.00
2022-07-26T20:11:11.650Z,52.05
2022-07-26T20:13:39.805Z,52.50
2022-07-26T20:16:09.006Z,52.35
2022-07-26T20:18:38.551Z,53.08
2022-07-26T20:21:06.574Z,52.06
2022-07-26T20:23:35.507Z,51.95
2022-07-26T20:26:06.167Z,52.12
2022-07-26T20:28:34.630Z,52.97
2022-07-26T20:31:03.123Z,52.79
2022-07-26T20:33:32.006Z,52.87
2022-07-26T20:36:01.655Z,52.98
2022-07-26T20:38:29.633Z,53.10
2022-07-26T20:40:57.447Z,52.74
2022-07-26T20:43:29.208Z,52.82
2022-07-26T20:46:00.356Z,52.22
2022-07-26T20:48:28.347Z,52.62
2022-07-26T20:50:56.485Z,54.00
2022-07-26T20:53:26.355Z,52.98
2022-07-26T20:55:54.328Z,53.53
2022-07-26T20:58:22.246Z,53.26
2022-07-26T21:00:51.121Z,53.27
2022-07-26T21:03:19.187Z,53.90
2022-07-26T21:05:47.750Z,53.57
2022-07-26T21:08:15.877Z,54.41
2022-07-26T21:10:45.969Z,54.01
2022-07-26T21:13:13.910Z,54.13
2022-07-26T21:15:42.844Z,54.02
2022-07-26T21:18:12.310Z,54.34
2022-07-26T21:20:41.356Z,54.21
2022-07-26T21:23:17.445Z,54.68
2022-07-26T21:25:47.796Z,55.35
2022-07-26T21:28:15.951Z,55.06
2022-07-26T21:30:43.857Z,54.75
2022-07-26T21:33:11.882Z,55.15
2022-07-26T21:35:41.050Z,54.48
2022-07-26T21:38:09.310Z,54.97
2022-07-26T21:40:37.475Z,55.70
2022-07-26T21:43:06.742Z,55.93
2022-07-26T21:45:35.656Z,55.93
2022-07-26T21:48:03.865Z,56.55
2022-07-26T21:50:31.983Z,55.79
2022-07-26T21:53:01.291Z,57.00
2022-07-26T21:55:30.125Z,57.24
2022-07-26T21:57:57.976Z,56.25
2022-07-26T22:00:27.493Z,56.75
2022-07-26T22:02:55.498Z,57.40
2022-07-26T22:05:37.713Z,57.54
2022-07-26T22:08:08.188Z,58.86
2022-07-26T22:10:44.001Z,58.54
2022-07-26T22:13:16.329Z,58.58
2022-07-26T22:15:46.090Z,59.21
2022-07-26T22:18:14.825Z,59.07
2022-07-26T22:20:44.089Z,60.37
2022-07-26T22:23:13.733Z,59.95
2022-07-26T22:25:42.141Z,59.37
2022-07-26T22:28:11.504Z,60.02
2022-07-26T22:30:40.343Z,60.59
2022-07-26T22:33:11.656Z,60.79
2022-07-26T22:35:39.725Z,61.11
2022-07-26T22:38:09.858Z,61.38
2022-07-26T22:40:38.981Z,61.06
2022-07-26T22:43:08.095Z,61.21
2022-07-26T22:45:36.124Z,61.82
2022-07-26T22:48:05.757Z,61.38
2022-07-26T22:50:35.271Z,61.78
2022-07-26T22:53:03.520Z,61.67
2022-07-26T22:55:32.752Z,61.25
2022-07-26T22:58:01.123Z,61.71
2022-07-26T23:00:30.156Z,61.27
2022-07-26T23:02:58.187Z,61.95
2022-07-26T23:05:34.598Z,62.15
2022-07-26T23:11:04.114Z,61.92
2022-07-26T23:13:32.091Z,62.04
2022-07-26T23:16:01.666Z,61.96
2022-07-26T23:18:30.549Z,62.33
2022-07-26T23:20:58.836Z,62.36
2022-07-26T23:23:29.320Z,62.83
2022-07-26T23:25:59.292Z,63.15
2022-07-26T23:28:37.601Z,62.32
2022-07-26T23:31:08.242Z,62.11
2022-07-26T23:33:50.913Z,62.44
2022-07-26T23:36:34.596Z,62.85
2022-07-26T23:39:04.558Z,62.22
2022-07-26T23:41:33.063Z,60.46
2022-07-26T23:44:01.260Z,61.21
2022-07-26T23:46:29.281Z,60.66
2022-07-26T23:48:58.537Z,61.61
2022-07-26T23:51:26.953Z,61.33
2022-07-26T23:53:54.974Z,60.93
2022-07-26T23:56:24.432Z,61.01
2022-07-26T23:58:52.422Z,61.32
